sensor_id;sensor_type;location;lat;lon;timestamp;pressure;altitude;pressure_sealevel;temperature;humidity
8894;BME280;4483;48.622;9.230;2023-08-20T00:00:12;98214.19;;;22.53;100.00
8894;BME280;4483;48.622;9.230;2023-08-20T00:02:42;98212.66;;;22.50;100.00
8894;BME280;4483;48.622;9.230;2023-08-20T00:05:09;98215.94;;;22.43;100.00
8894;BME280;4483;48.622;9.230;2023-08-20T00:07:37;98208.41;;;22.38;100.00
8894;BME280;4483;48.622;9.230;2023-08-20T00:10:04;98212.00;;;22.37;100.00
8894;BME280;4483;48.622;9.230;2023-08-20T00:12:31;98207.00;;;22.34;100.00
8894;BME280;4483;48.622;9.230;2023-08-20T00:15:00;98213.34;;;22.32;100.00
8894;BME280;4483;48.622;9.230;2023-08-20T00:17:31;98207.53;;;22.28;100.00
8894;BME280;4483;48.622;9.230;2023-08-20T00:19:59;98219.94;;;22.26;100.00
8894;BME280;4483;48.622;9.230;2023-08-20T00:22:26;98213.53;;;22.19;100.00
8894;BME280;4483;48.622;9.230;2023-08-20T00:24:54;98213.16;;;22.13;100.00
8894;BME280;4483;48.622;9.230;2023-08-20T00:27:21;98218.53;;;22.11;100.00
8894;BME280;4483;48.622;9.230;2023-08-20T00:29:48;98226.41;;;22.11;100.00
8894;BME280;4483;48.622;9.230;2023-08-20T00:32:16;98225.47;;;22.12;100.00
8894;BME280;4483;48.622;9.230;2023-08-20T00:34:42;98222.84;;;22.12;100.00
8894;BME280;4483;48.622;9.230;2023-08-20T00:37:09;98213.44;;;22.10;100.00
8894;BME280;4483;48.622;9.230;2023-08-20T00:39:35;98218.41;;;22.13;100.00
8894;BME280;4483;48.622;9.230;2023-08-20T00:42:03;98227.41;;;22.10;100.00
8894;BME280;4483;48.622;9.230;2023-08-20T00:44:29;98224.06;;;22.08;100.00
8894;BME280;4483;48.622;9.230;2023-08-20T00:46:56;98218.22;;;22.05;100.00
8894;BME280;4483;48.622;9.230;2023-08-20T00:49:26;98220.72;;;22.06;100.00
8894;BME280;4483;48.622;9.230;2023-08-20T00:51:53;98225.00;;;22.07;100.00
8894;BME280;4483;48.622;9.230;2023-08-20T00:54:20;98220.84;;;22.05;100.00
8894;BME280;4483;48.622;9.230;2023-08-20T00:56:49;98221.91;;;22.02;100.00
8894;BME280;4483;48.622;9.230;2023-08-20T00:59:16;98235.28;;;21.99;100.00
8894;BME280;4483;48.622;9.230;2023-08-20T01:01:43;98223.38;;;21.95;100.00
8894;BME280;4483;48.622;9.230;2023-08-20T01:04:10;98219.78;;;21.96;100.00
8894;BME280;4483;48.622;9.230;2023-08-20T01:06:44;98212.66;;;21.87;100.00
8894;BME280;4483;48.622;9.230;2023-08-20T01:09:19;98228.63;;;21.95;100.00
8894;BME280;4483;48.622;9.230;2023-08-20T01:11:54;98221.94;;;21.91;100.00
8894;BME280;4483;48.622;9.230;2023-08-20T01:14:22;98223.84;;;21.89;100.00
8894;BME280;4483;48.622;9.230;2023-08-20T01:16:49;98228.38;;;21.87;100.00
8894;BME280;4483;48.622;9.230;2023-08-20T01:19:17;98231.97;;;21.86;100.00
8894;BME280;4483;48.622;9.230;2023-08-20T01:21:56;98236.50;;;21.84;100.00
8894;BME280;4483;48.622;9.230;2023-08-20T01:24:38;98237.59;;;21.81;100.00
8894;BME280;4483;48.622;9.230;2023-08-20T01:27:23;98232.91;;;21.74;100.00
8894;BME280;4483;48.622;9.230;2023-08-20T01:29:53;98233.53;;;21.66;100.00
8894;BME280;4483;48.622;9.230;2023-08-20T01:32:22;98235.44;;;21.64;100.00
8894;BME280;4483;48.622;9.230;2023-08-20T01:34:49;98234.59;;;21.64;100.00
8894;BME280;4483;48.622;9.230;2023-08-20T01:37:16;98231.97;;;21.64;100.00
8894;BME280;4483;48.622;9.230;2023-08-20T01:39:42;98228.91;;;21.59;100.00
8894;BME280;4483;48.622;9.230;2023-08-20T01:42:09;98233.44;;;21.57;100.00
8894;BME280;4483;48.622;9.230;2023-08-20T01:44:35;98237.09;;;21.54;100.00
8894;BME280;4483;48.622;9.230;2023-08-20T01:47:04;98239.13;;;21.51;100.00
8894;BME280;4483;48.622;9.230;2023-08-20T01:49:30;98239.63;;;21.45;100.00
8894;BME280;4483;48.622;9.230;2023-08-20T01:51:57;98230.44;;;21.39;100.00
8894;BME280;4483;48.622;9.230;2023-08-20T01:54:23;98244.13;;;21.32;100.00
8894;BME280;4483;48.622;9.230;2023-08-20T01:56:50;98246.41;;;21.25;100.00
8894;BME280;4483;48.622;9.230;2023-08-20T01:59:17;98243.19;;;21.22;100.00
8894;BME280;4483;48.622;9.230;2023-08-20T02:01:43;98246.06;;;21.19;100.00
8894;BME280;4483;48.622;9.230;2023-08-20T02:04:11;98243.44;;;21.19;100.00
8894;BME280;4483;48.622;9.230;2023-08-20T02:06:38;98241.63;;;21.19;100.00
8894;BME280;4483;48.622;9.230;2023-08-20T02:09:05;98240.91;;;21.17;100.00
8894;BME280;4483;48.622;9.230;2023-08-20T02:11:31;98240.19;;;21.15;100.00
8894;BME280;4483;48.622;9.230;2023-08-20T02:14:01;98242.94;;;21.14;100.00
8894;BME280;4483;48.622;9.230;2023-08-20T02:16:27;98248.19;;;21.14;100.00
8894;BME280;4483;48.622;9.230;2023-08-20T02:18:54;98244.97;;;21.10;100.00
8894;BME280;4483;48.622;9.230;2023-08-20T02:21:22;98246.63;;;21.00;100.00
8894;BME280;4483;48.622;9.230;2023-08-20T02:23:49;98242.78;;;20.93;100.00
8894;BME280;4483;48.622;9.230;2023-08-20T02:26:15;98247.28;;;20.91;100.00
8894;BME280;4483;48.622;9.230;2023-08-20T02:28:42;98248.94;;;20.92;100.00
8894;BME280;4483;48.622;9.230;2023-08-20T02:31:08;98248.94;;;20.92;100.00
8894;BME280;4483;48.622;9.230;2023-08-20T02:33:35;98255.25;;;20.89;100.00
8894;BME280;4483;48.622;9.230;2023-08-20T02:36:02;98259.06;;;20.85;100.00
8894;BME280;4483;48.622;9.230;2023-08-20T02:38:30;98260.59;;;20.88;100.00
8894;BME280;4483;48.622;9.230;2023-08-20T02:40:57;98253.09;;;20.83;100.00
8894;BME280;4483;48.622;9.230;2023-08-20T02:43:23;98253.69;;;20.76;100.00
8894;BME280;4483;48.622;9.230;2023-08-20T02:45:50;98254.97;;;20.70;100.00
8894;BME280;4483;48.622;9.230;2023-08-20T02:48:17;98247.38;;;20.67;100.00
8894;BME280;4483;48.622;9.230;2023-08-20T02:50:44;98250.78;;;20.68;100.00
8894;BME280;4483;48.622;9.230;2023-08-20T02:53:10;98252.47;;;20.69;100.00
8894;BME280;4483;48.622;9.230;2023-08-20T02:55:38;98250.78;;;20.68;100.00
8894;BME280;4483;48.622;9.230;2023-08-20T02:58:05;98255.91;;;20.69;100.00
8894;BME280;4483;48.622;9.230;2023-08-20T03:00:33;98253.41;;;20.68;100.00
8894;BME280;4483;48.622;9.230;2023-08-20T03:02:59;98252.59;;;20.67;100.00
8894;BME280;4483;48.622;9.230;2023-08-20T03:05:28;98251.03;;;20.65;100.00
8894;BME280;4483;48.622;9.230;2023-08-20T03:07:54;98255.44;;;20.64;100.00
8894;BME280;4483;48.622;9.230;2023-08-20T03:10:21;98259.00;;;20.63;100.00
8894;BME280;4483;48.622;9.230;2023-08-20T03:12:49;98255.66;;;20.61;100.00
8894;BME280;4483;48.622;9.230;2023-08-20T03:15:15;98242.28;;;20.53;100.00
8894;BME280;4483;48.622;9.230;2023-08-20T03:17:42;98247.78;;;20.50;100.00
8894;BME280;4483;48.622;9.230;2023-08-20T03:20:09;98246.19;;;20.48;100.00
8894;BME280;4483;48.622;9.230;2023-08-20T03:22:37;98239.44;;;20.45;100.00
8894;BME280;4483;48.622;9.230;2023-08-20T03:25:04;98242.13;;;20.44;100.00
8894;BME280;4483;48.622;9.230;2023-08-20T03:27:31;98237.03;;;20.42;100.00
8894;BME280;4483;48.622;9.230;2023-08-20T03:29:59;98235.38;;;20.41;100.00
8894;BME280;4483;48.622;9.230;2023-08-20T03:32:26;98237.13;;;20.41;100.00
8894;BME280;4483;48.622;9.230;2023-08-20T03:34:52;98237.38;;;20.38;100.00
8894;BME280;4483;48.622;9.230;2023-08-20T03:37:21;98241.66;;;20.39;100.00
8894;BME280;4483;48.622;9.230;2023-08-20T03:39:48;98243.41;;;20.38;100.00
8894;BME280;4483;48.622;9.230;2023-08-20T03:42:14;98245.34;;;20.36;100.00
8894;BME280;4483;48.622;9.230;2023-08-20T03:44:41;98248.91;;;20.35;100.00
8894;BME280;4483;48.622;9.230;2023-08-20T03:47:09;98249.00;;;20.34;100.00
8894;BME280;4483;48.622;9.230;2023-08-20T03:49:36;98246.50;;;20.32;100.00
8894;BME280;4483;48.622;9.230;2023-08-20T03:52:02;98250.06;;;20.31;100.00
8894;BME280;4483;48.622;9.230;2023-08-20T03:54:29;98251.47;;;20.24;100.00
8894;BME280;4483;48.622;9.230;2023-08-20T03:56:56;98245.00;;;20.17;100.00
8894;BME280;4483;48.622;9.230;2023-08-20T03:59:23;98241.50;;;20.17;100.00
8894;BME280;4483;48.622;9.230;2023-08-20T04:01:49;98242.38;;;20.17;100.00
8894;BME280;4483;48.622;9.230;2023-08-20T04:04:17;98234.63;;;20.16;100.00
8894;BME280;4483;48.622;9.230;2023-08-20T04:06:46;98229.00;;;20.09;100.00
8894;BME280;4483;48.622;9.230;2023-08-20T04:09:12;98231.41;;;20.12;100.00
8894;BME280;4483;48.622;9.230;2023-08-20T04:11:39;98229.59;;;20.13;100.00
8894;BME280;4483;48.622;9.230;2023-08-20T04:14:06;98230.31;;;20.15;100.00
8894;BME280;4483;48.622;9.230;2023-08-20T04:16:32;98234.13;;;20.11;100.00
8894;BME280;4483;48.622;9.230;2023-08-20T04:18:59;98236.63;;;20.12;100.00
8894;BME280;4483;48.622;9.230;2023-08-20T04:21:27;98235.78;;;20.12;100.00
8894;BME280;4483;48.622;9.230;2023-08-20T04:23:54;98242.78;;;20.11;100.00
8894;BME280;4483;48.622;9.230;2023-08-20T04:26:20;98230.38;;;20.02;100.00
8894;BME280;4483;48.622;9.230;2023-08-20T04:28:47;98243.88;;;20.09;100.00
8894;BME280;4483;48.622;9.230;2023-08-20T04:31:13;98247.75;;;20.03;100.00
8894;BME280;4483;48.622;9.230;2023-08-20T04:33:40;98251.31;;;20.02;100.00
8894;BME280;4483;48.622;9.230;2023-08-20T04:36:06;98253.94;;;20.02;100.00
8894;BME280;4483;48.622;9.230;2023-08-20T04:38:34;98245.16;;;20.03;100.00
8894;BME280;4483;48.622;9.230;2023-08-20T04:41:01;98243.97;;;20.07;100.00
8894;BME280;4483;48.622;9.230;2023-08-20T04:43:27;98238.63;;;20.09;100.00
8894;BME280;4483;48.622;9.230;2023-08-20T04:45:54;98240.06;;;20.13;100.00
8894;BME280;4483;48.622;9.230;2023-08-20T04:48:20;98245.94;;;20.16;100.00
8894;BME280;4483;48.622;9.230;2023-08-20T04:50:47;98253.47;;;20.21;100.00
8894;BME280;4483;48.622;9.230;2023-08-20T04:53:14;98254.19;;;20.23;100.00
8894;BME280;4483;48.622;9.230;2023-08-20T04:55:41;98254.81;;;20.26;100.00
8894;BME280;4483;48.622;9.230;2023-08-20T04:58:08;98266.72;;;20.30;100.00
8894;BME280;4483;48.622;9.230;2023-08-20T05:00:35;98264.59;;;20.35;100.00
8894;BME280;4483;48.622;9.230;2023-08-20T05:03:01;98266.03;;;20.39;100.00
8894;BME280;4483;48.622;9.230;2023-08-20T05:05:28;98271.03;;;20.42;100.00
8894;BME280;4483;48.622;9.230;2023-08-20T05:07:55;98279.31;;;20.49;100.00
8894;BME280;4483;48.622;9.230;2023-08-20T05:10:21;98278.94;;;20.53;100.00
8894;BME280;4483;48.622;9.230;2023-08-20T05:12:49;98271.31;;;20.50;100.00
8894;BME280;4483;48.622;9.230;2023-08-20T05:15:16;98286.13;;;20.62;100.00
8894;BME280;4483;48.622;9.230;2023-08-20T05:17:43;98286.16;;;20.73;100.00
8894;BME280;4483;48.622;9.230;2023-08-20T05:20:10;98285.25;;;20.85;100.00
8894;BME280;4483;48.622;9.230;2023-08-20T05:22:36;98265.72;;;20.89;100.00
8894;BME280;4483;48.622;9.230;2023-08-20T05:25:04;98271.41;;;21.07;100.00
8894;BME280;4483;48.622;9.230;2023-08-20T05:27:30;98253.28;;;21.15;100.00
8894;BME280;4483;48.622;9.230;2023-08-20T05:29:58;98261.19;;;21.37;100.00
8894;BME280;4483;48.622;9.230;2023-08-20T05:32:25;98266.06;;;21.53;100.00
8894;BME280;4483;48.622;9.230;2023-08-20T05:34:51;98255.09;;;21.70;100.00
8894;BME280;4483;48.622;9.230;2023-08-20T05:37:18;98259.16;;;21.85;100.00
8894;BME280;4483;48.622;9.230;2023-08-20T05:39:44;98250.06;;;22.00;100.00
8894;BME280;4483;48.622;9.230;2023-08-20T05:42:11;98248.84;;;22.15;100.00
8894;BME280;4483;48.622;9.230;2023-08-20T05:44:38;98240.72;;;22.18;100.00
8894;BME280;4483;48.622;9.230;2023-08-20T05:47:06;98264.84;;;22.44;100.00
8894;BME280;4483;48.622;9.230;2023-08-20T05:49:32;98265.88;;;22.63;100.00
8894;BME280;4483;48.622;9.230;2023-08-20T05:51:59;98276.38;;;22.84;100.00
8894;BME280;4483;48.622;9.230;2023-08-20T05:54:26;98280.81;;;23.04;100.00
8894;BME280;4483;48.622;9.230;2023-08-20T05:56:52;98270.78;;;23.19;100.00
8894;BME280;4483;48.622;9.230;2023-08-20T05:59:19;98278.03;;;23.47;100.00
8894;BME280;4483;48.622;9.230;2023-08-20T06:01:45;98278.13;;;23.66;100.00
8894;BME280;4483;48.622;9.230;2023-08-20T06:04:13;98282.03;;;23.81;100.00
8894;BME280;4483;48.622;9.230;2023-08-20T06:06:40;98282.03;;;23.81;100.00
8894;BME280;4483;48.622;9.230;2023-08-20T06:09:06;98279.69;;;23.78;100.00
8894;BME280;4483;48.622;9.230;2023-08-20T06:11:33;98282.03;;;23.81;100.00
8894;BME280;4483;48.622;9.230;2023-08-20T06:14:00;98278.91;;;23.97;100.00
8894;BME280;4483;48.622;9.230;2023-08-20T06:16:26;98274.69;;;24.15;100.00
8894;BME280;4483;48.622;9.230;2023-08-20T06:18:53;98279.84;;;24.35;100.00
8894;BME280;4483;48.622;9.230;2023-08-20T06:21:21;98285.56;;;24.59;100.00
8894;BME280;4483;48.622;9.230;2023-08-20T06:23:47;98287.91;;;24.81;99.99
8894;BME280;4483;48.622;9.230;2023-08-20T06:26:14;98293.44;;;25.07;98.83
8894;BME280;4483;48.622;9.230;2023-08-20T06:28:41;98286.34;;;25.27;97.93
8894;BME280;4483;48.622;9.230;2023-08-20T06:31:07;98264.09;;;25.29;97.09
8894;BME280;4483;48.622;9.230;2023-08-20T06:33:34;98293.75;;;25.60;95.64
8894;BME280;4483;48.622;9.230;2023-08-20T06:36:00;98296.47;;;25.77;95.20
8894;BME280;4483;48.622;9.230;2023-08-20T06:38:28;98286.94;;;25.94;94.01
8894;BME280;4483;48.622;9.230;2023-08-20T06:40:55;98285.03;;;26.14;93.13
8894;BME280;4483;48.622;9.230;2023-08-20T06:43:22;98277.84;;;26.33;92.61
8894;BME280;4483;48.622;9.230;2023-08-20T06:45:49;98274.44;;;26.58;91.74
8894;BME280;4483;48.622;9.230;2023-08-20T06:48:15;98283.91;;;26.78;89.86
8894;BME280;4483;48.622;9.230;2023-08-20T06:50:45;98293.63;;;26.96;89.01
8894;BME280;4483;48.622;9.230;2023-08-20T06:53:11;98277.19;;;27.10;88.78
8894;BME280;4483;48.622;9.230;2023-08-20T06:55:39;98288.50;;;27.37;87.59
8894;BME280;4483;48.622;9.230;2023-08-20T06:58:06;98294.34;;;27.49;86.49
8894;BME280;4483;48.622;9.230;2023-08-20T07:00:32;98281.25;;;27.47;85.49
8894;BME280;4483;48.622;9.230;2023-08-20T07:02:59;98280.19;;;27.58;85.53
8894;BME280;4483;48.622;9.230;2023-08-20T07:05:26;98282.91;;;27.74;85.00
8894;BME280;4483;48.622;9.230;2023-08-20T07:07:52;98282.53;;;28.03;84.22
8894;BME280;4483;48.622;9.230;2023-08-20T07:10:19;98293.56;;;28.32;84.02
8894;BME280;4483;48.622;9.230;2023-08-20T07:12:47;98298.94;;;28.56;82.36
8894;BME280;4483;48.622;9.230;2023-08-20T07:15:14;98301.28;;;28.83;81.00
8894;BME280;4483;48.622;9.230;2023-08-20T07:17:40;98302.31;;;29.14;80.43
8894;BME280;4483;48.622;9.230;2023-08-20T07:20:07;98294.97;;;29.48;79.33
8894;BME280;4483;48.622;9.230;2023-08-20T07:22:34;98295.75;;;29.73;77.05
8894;BME280;4483;48.622;9.230;2023-08-20T07:25:01;98304.78;;;29.95;74.66
8894;BME280;4483;48.622;9.230;2023-08-20T07:27:27;98294.81;;;30.05;74.19
8894;BME280;4483;48.622;9.230;2023-08-20T07:29:55;98300.88;;;30.13;73.24
8894;BME280;4483;48.622;9.230;2023-08-20T07:32:22;98297.72;;;30.18;72.25
8894;BME280;4483;48.622;9.230;2023-08-20T07:34:48;98306.81;;;30.31;71.69
8894;BME280;4483;48.622;9.230;2023-08-20T07:37:15;98310.09;;;30.41;71.25
8894;BME280;4483;48.622;9.230;2023-08-20T07:39:42;98312.03;;;30.47;70.38
8894;BME280;4483;48.622;9.230;2023-08-20T07:42:08;98311.97;;;30.55;69.74
8894;BME280;4483;48.622;9.230;2023-08-20T07:44:36;98296.50;;;30.59;68.81
8894;BME280;4483;48.622;9.230;2023-08-20T07:47:04;98315.25;;;30.65;68.63
8894;BME280;4483;48.622;9.230;2023-08-20T07:49:31;98309.28;;;30.63;68.91
8894;BME280;4483;48.622;9.230;2023-08-20T07:51:57;98316.13;;;30.81;68.37
8894;BME280;4483;48.622;9.230;2023-08-20T07:54:24;98290.66;;;30.86;67.82
8894;BME280;4483;48.622;9.230;2023-08-20T07:56:51;98312.97;;;30.85;67.34
8894;BME280;4483;48.622;9.230;2023-08-20T07:59:18;98322.44;;;30.88;67.33
8894;BME280;4483;48.622;9.230;2023-08-20T08:01:45;98329.56;;;31.10;66.64
8894;BME280;4483;48.622;9.230;2023-08-20T08:04:13;98327.72;;;31.33;66.36
8894;BME280;4483;48.622;9.230;2023-08-20T08:06:39;98324.66;;;31.73;65.07
8894;BME280;4483;48.622;9.230;2023-08-20T08:09:19;98316.94;;;32.07;63.56
8894;BME280;4483;48.622;9.230;2023-08-20T08:11:47;98321.63;;;32.20;63.78
8894;BME280;4483;48.622;9.230;2023-08-20T08:14:14;98326.84;;;32.42;63.13
8894;BME280;4483;48.622;9.230;2023-08-20T08:16:41;98327.38;;;32.38;62.66
8894;BME280;4483;48.622;9.230;2023-08-20T08:19:07;98318.78;;;32.21;62.95
8894;BME280;4483;48.622;9.230;2023-08-20T08:21:35;98322.34;;;32.28;62.56
8894;BME280;4483;48.622;9.230;2023-08-20T08:24:02;98322.66;;;32.54;61.82
8894;BME280;4483;48.622;9.230;2023-08-20T08:26:30;98319.28;;;32.82;61.89
8894;BME280;4483;48.622;9.230;2023-08-20T08:28:57;98328.88;;;33.18;61.41
8894;BME280;4483;48.622;9.230;2023-08-20T08:31:24;98326.50;;;33.51;59.98
8894;BME280;4483;48.622;9.230;2023-08-20T08:33:51;98333.00;;;33.70;58.67
8894;BME280;4483;48.622;9.230;2023-08-20T08:36:17;98324.56;;;33.73;57.40
8894;BME280;4483;48.622;9.230;2023-08-20T08:38:45;98323.59;;;33.80;57.01
8894;BME280;4483;48.622;9.230;2023-08-20T08:41:13;98336.28;;;33.72;57.01
8894;BME280;4483;48.622;9.230;2023-08-20T08:43:40;98331.22;;;33.83;57.03
8894;BME280;4483;48.622;9.230;2023-08-20T08:46:13;98338.22;;;34.18;56.55
8894;BME280;4483;48.622;9.230;2023-08-20T08:48:41;98301.25;;;34.35;55.84
8894;BME280;4483;48.622;9.230;2023-08-20T08:51:08;98326.09;;;34.89;55.27
8894;BME280;4483;48.622;9.230;2023-08-20T08:53:35;98318.53;;;35.12;53.82
8894;BME280;4483;48.622;9.230;2023-08-20T08:56:04;98319.34;;;35.39;53.55
8894;BME280;4483;48.622;9.230;2023-08-20T08:58:32;98317.50;;;35.33;52.70
8894;BME280;4483;48.622;9.230;2023-08-20T09:00:59;98327.81;;;35.23;52.46
8894;BME280;4483;48.622;9.230;2023-08-20T09:03:26;98322.84;;;35.33;52.81
8894;BME280;4483;48.622;9.230;2023-08-20T09:05:55;98317.50;;;35.33;52.09
8894;BME280;4483;48.622;9.230;2023-08-20T09:08:26;98319.34;;;35.13;52.56
8894;BME280;4483;48.622;9.230;2023-08-20T09:10:55;98327.09;;;34.69;53.17
8894;BME280;4483;48.622;9.230;2023-08-20T09:13:24;98328.22;;;34.40;53.47
8894;BME280;4483;48.622;9.230;2023-08-20T09:15:51;98321.91;;;34.47;54.37
8894;BME280;4483;48.622;9.230;2023-08-20T09:18:18;98326.50;;;34.73;53.86
8894;BME280;4483;48.622;9.230;2023-08-20T09:20:47;98324.47;;;34.88;54.07
8894;BME280;4483;48.622;9.230;2023-08-20T09:23:14;98327.59;;;35.11;53.83
8894;BME280;4483;48.622;9.230;2023-08-20T09:25:40;98323.47;;;35.15;53.57
8894;BME280;4483;48.622;9.230;2023-08-20T09:28:07;98323.50;;;35.09;52.98
8894;BME280;4483;48.622;9.230;2023-08-20T09:30:36;98325.94;;;34.97;53.00
8894;BME280;4483;48.622;9.230;2023-08-20T09:33:06;98330.41;;;34.84;53.64
8894;BME280;4483;48.622;9.230;2023-08-20T09:35:34;98322.84;;;34.94;53.81
8894;BME280;4483;48.622;9.230;2023-08-20T09:38:00;98327.81;;;35.36;53.61
8894;BME280;4483;48.622;9.230;2023-08-20T09:40:28;98330.69;;;35.67;52.70
8894;BME280;4483;48.622;9.230;2023-08-20T09:42:56;98324.06;;;35.89;52.10
8894;BME280;4483;48.622;9.230;2023-08-20T09:45:24;98314.75;;;35.98;51.41
8894;BME280;4483;48.622;9.230;2023-08-20T09:47:54;98315.91;;;36.15;50.92
8894;BME280;4483;48.622;9.230;2023-08-20T09:50:22;98322.66;;;36.38;50.15
8894;BME280;4483;48.622;9.230;2023-08-20T09:52:55;98311.47;;;36.54;49.97
8894;BME280;4483;48.622;9.230;2023-08-20T09:55:28;98299.88;;;36.53;49.00
8894;BME280;4483;48.622;9.230;2023-08-20T09:57:56;98310.06;;;36.76;48.03
8894;BME280;4483;48.622;9.230;2023-08-20T10:00:23;98311.28;;;36.86;48.69
8894;BME280;4483;48.622;9.230;2023-08-20T10:02:52;98315.78;;;37.17;48.18
8894;BME280;4483;48.622;9.230;2023-08-20T10:05:19;98311.97;;;37.56;47.18
8894;BME280;4483;48.622;9.230;2023-08-20T10:07:47;98318.81;;;37.94;45.57
8894;BME280;4483;48.622;9.230;2023-08-20T10:10:15;98309.25;;;38.16;44.48
8894;BME280;4483;48.622;9.230;2023-08-20T10:12:43;98312.56;;;38.18;41.52
8894;BME280;4483;48.622;9.230;2023-08-20T10:15:11;98310.75;;;38.12;41.83
8894;BME280;4483;48.622;9.230;2023-08-20T10:17:39;98303.50;;;38.13;42.32
8894;BME280;4483;48.622;9.230;2023-08-20T10:20:09;98293.88;;;38.23;42.28
8894;BME280;4483;48.622;9.230;2023-08-20T10:22:37;98301.00;;;38.30;40.92
8894;BME280;4483;48.622;9.230;2023-08-20T10:25:06;98301.06;;;38.41;40.63
8894;BME280;4483;48.622;9.230;2023-08-20T10:27:34;98295.50;;;38.54;40.51
8894;BME280;4483;48.622;9.230;2023-08-20T10:30:01;98292.56;;;38.56;41.36
8894;BME280;4483;48.622;9.230;2023-08-20T10:32:45;98288.81;;;38.45;41.04
8894;BME280;4483;48.622;9.230;2023-08-20T10:35:15;98292.09;;;38.47;40.06
8894;BME280;4483;48.622;9.230;2023-08-20T10:38:03;98282.63;;;38.56;41.75
8894;BME280;4483;48.622;9.230;2023-08-20T10:40:52;98290.31;;;38.41;39.67
8894;BME280;4483;48.622;9.230;2023-08-20T10:43:26;98296.66;;;38.47;40.50
8894;BME280;4483;48.622;9.230;2023-08-20T10:46:05;98299.69;;;38.68;40.00
8894;BME280;4483;48.622;9.230;2023-08-20T10:48:32;98294.72;;;38.95;39.44
8894;BME280;4483;48.622;9.230;2023-08-20T10:51:10;98285.28;;;39.27;38.87
8894;BME280;4483;48.622;9.230;2023-08-20T10:53:38;98293.16;;;39.40;38.38
8894;BME280;4483;48.622;9.230;2023-08-20T10:56:12;98245.69;;;39.28;38.81
8894;BME280;4483;48.622;9.230;2023-08-20T10:58:44;98293.75;;;39.77;37.06
8894;BME280;4483;48.622;9.230;2023-08-20T11:01:16;98284.47;;;39.84;36.35
8894;BME280;4483;48.622;9.230;2023-08-20T11:03:44;98289.97;;;39.89;35.79
8894;BME280;4483;48.622;9.230;2023-08-20T11:06:12;98286.00;;;39.92;35.66
8894;BME280;4483;48.622;9.230;2023-08-20T11:08:39;98279.06;;;39.84;35.37
8894;BME280;4483;48.622;9.230;2023-08-20T11:11:06;98284.13;;;39.92;36.06
8894;BME280;4483;48.622;9.230;2023-08-20T11:13:33;98286.09;;;40.08;36.36
8894;BME280;4483;48.622;9.230;2023-08-20T11:16:02;98285.09;;;40.14;35.61
8894;BME280;4483;48.622;9.230;2023-08-20T11:18:30;98286.75;;;40.16;36.13
8894;BME280;4483;48.622;9.230;2023-08-20T11:20:57;98281.69;;;40.19;36.48
8894;BME280;4483;48.622;9.230;2023-08-20T11:23:25;98282.13;;;40.28;36.18
8894;BME280;4483;48.622;9.230;2023-08-20T11:25:52;98273.84;;;40.46;35.48
8894;BME280;4483;48.622;9.230;2023-08-20T11:28:19;98268.16;;;40.59;34.91
8894;BME280;4483;48.622;9.230;2023-08-20T11:30:46;98268.03;;;40.65;34.47
8894;BME280;4483;48.622;9.230;2023-08-20T11:33:13;98276.78;;;40.72;34.60
8894;BME280;4483;48.622;9.230;2023-08-20T11:35:41;98257.81;;;40.67;35.02
8894;BME280;4483;48.622;9.230;2023-08-20T11:38:09;98272.69;;;40.70;34.59
8894;BME280;4483;48.622;9.230;2023-08-20T11:40:37;98264.34;;;40.71;34.71
8894;BME280;4483;48.622;9.230;2023-08-20T11:43:04;98256.66;;;40.63;34.36
8894;BME280;4483;48.622;9.230;2023-08-20T11:45:31;98257.94;;;40.61;34.76
8894;BME280;4483;48.622;9.230;2023-08-20T11:47:58;98262.75;;;40.59;34.85
8894;BME280;4483;48.622;9.230;2023-08-20T11:50:26;98256.31;;;40.60;34.52
8894;BME280;4483;48.622;9.230;2023-08-20T11:52:53;98260.94;;;40.48;34.63
8894;BME280;4483;48.622;9.230;2023-08-20T11:55:23;98259.81;;;40.44;35.59
8894;BME280;4483;48.622;9.230;2023-08-20T11:57:52;98258.97;;;40.43;35.05
8894;BME280;4483;48.622;9.230;2023-08-20T12:00:25;98262.69;;;40.54;34.99
8894;BME280;4483;48.622;9.230;2023-08-20T12:02:53;98255.09;;;40.67;35.02
8894;BME280;4483;48.622;9.230;2023-08-20T12:05:21;98248.13;;;40.71;34.52
8894;BME280;4483;48.622;9.230;2023-08-20T12:07:59;98246.66;;;40.64;35.15
8894;BME280;4483;48.622;9.230;2023-08-20T12:10:27;98246.94;;;40.79;34.84
8894;BME280;4483;48.622;9.230;2023-08-20T12:12:56;98255.03;;;40.95;33.96
8894;BME280;4483;48.622;9.230;2023-08-20T12:15:24;98241.28;;;41.14;34.27
8894;BME280;4483;48.622;9.230;2023-08-20T12:17:58;98233.75;;;41.32;34.02
8894;BME280;4483;48.622;9.230;2023-08-20T12:20:27;98242.38;;;41.29;33.95
8894;BME280;4483;48.622;9.230;2023-08-20T12:22:53;98238.25;;;41.10;34.19
8894;BME280;4483;48.622;9.230;2023-08-20T12:25:20;98241.06;;;41.15;33.91
8894;BME280;4483;48.622;9.230;2023-08-20T12:27:46;98245.00;;;41.08;33.83
8894;BME280;4483;48.622;9.230;2023-08-20T12:30:15;98240.47;;;40.96;32.86
8894;BME280;4483;48.622;9.230;2023-08-20T12:32:41;98236.19;;;40.67;32.74
8894;BME280;4483;48.622;9.230;2023-08-20T12:35:08;98228.47;;;40.59;32.62
8894;BME280;4483;48.622;9.230;2023-08-20T12:37:34;98226.34;;;40.33;33.19
8894;BME280;4483;48.622;9.230;2023-08-20T12:40:02;98228.03;;;40.23;33.51
8894;BME280;4483;48.622;9.230;2023-08-20T12:42:32;98220.59;;;40.41;33.89
8894;BME280;4483;48.622;9.230;2023-08-20T12:44:59;98223.47;;;40.51;33.79
8894;BME280;4483;48.622;9.230;2023-08-20T12:47:27;98219.47;;;40.54;33.11
8894;BME280;4483;48.622;9.230;2023-08-20T12:49:53;98213.47;;;40.52;33.43
8894;BME280;4483;48.622;9.230;2023-08-20T12:52:20;98210.03;;;40.40;33.18
8894;BME280;4483;48.622;9.230;2023-08-20T12:54:47;98207.91;;;40.42;33.28
8894;BME280;4483;48.622;9.230;2023-08-20T12:57:13;98201.38;;;40.54;33.54
8894;BME280;4483;48.622;9.230;2023-08-20T12:59:40;98198.81;;;40.48;33.55
8894;BME280;4483;48.622;9.230;2023-08-20T13:02:06;98201.84;;;40.51;33.59
8894;BME280;4483;48.622;9.230;2023-08-20T13:04:35;98203.00;;;40.55;33.66
8894;BME280;4483;48.622;9.230;2023-08-20T13:07:03;98203.56;;;40.41;33.17
8894;BME280;4483;48.622;9.230;2023-08-20T13:09:30;98200.84;;;40.41;33.38
8894;BME280;4483;48.622;9.230;2023-08-20T13:12:00;98199.16;;;40.51;33.35
8894;BME280;4483;48.622;9.230;2023-08-20T13:14:27;98202.63;;;40.63;33.20
8894;BME280;4483;48.622;9.230;2023-08-20T13:16:55;98199.75;;;40.70;33.06
8894;BME280;4483;48.622;9.230;2023-08-20T13:19:22;98196.09;;;40.76;33.09